createdAt,value
2022-10-17T00:02:04.450Z,76.75
2022-10-17T00:04:36.373Z,69.07
2022-10-17T00:07:08.298Z,76.85
2022-10-17T00:09:43.438Z,66.80
2022-10-17T00:12:15.292Z,68.07
2022-10-17T00:14:47.131Z,69.75
2022-10-17T00:17:19.054Z,68.25
2022-10-17T00:19:51.002Z,66.57
2022-10-17T00:22:23.038Z,68.40
2022-10-17T00:24:54.947Z,67.63
2022-10-17T00:27:27.030Z,68.93
2022-10-17T00:29:59.437Z,65.35
2022-10-17T00:32:38.815Z,64.22
2022-10-17T00:35:11.215Z,66.43
2022-10-17T00:37:43.233Z,63.22
2022-10-17T00:40:15.104Z,60.92
2022-10-17T00:42:47.406Z,62.55
2022-10-17T00:45:24.164Z,62.67
2022-10-17T00:48:04.536Z,57.30
2022-10-17T00:50:39.273Z,61.03
2022-10-17T00:53:11.438Z,60.15
2022-10-17T00:55:50.913Z,61.35
2022-10-17T00:58:22.959Z,68.00
2022-10-17T01:00:54.914Z,58.92
2022-10-17T01:03:26.871Z,60.60
2022-10-17T01:05:58.954Z,68.03
2022-10-17T01:08:31.218Z,57.42
2022-10-17T01:11:24.976Z,57.03
2022-10-17T01:14:21.481Z,58.00
2022-10-17T01:17:14.272Z,60.83
2022-10-17T01:20:06.938Z,56.65
2022-10-17T01:22:46.446Z,60.92
2022-10-17T01:25:57.484Z,59.00
2022-10-17T01:28:58.618Z,59.75
2022-10-17T01:32:02.020Z,61.55
2022-10-17T01:34:43.201Z,58.15
2022-10-17T01:37:19.317Z,58.85
2022-10-17T01:40:11.982Z,55.85
2022-10-17T01:43:05.147Z,54.67
2022-10-17T01:45:45.843Z,57.53
2022-10-17T01:48:24.778Z,59.60
2022-10-17T01:51:05.624Z,60.47
2022-10-17T01:53:43.021Z,59.35
2022-10-17T01:56:17.758Z,55.92
2022-10-17T01:59:19.342Z,62.17
2022-10-17T02:01:54.360Z,59.50
2022-10-17T02:04:28.597Z,57.33
2022-10-17T02:07:08.932Z,58.00
2022-10-17T02:09:42.177Z,59.55
2022-10-17T02:12:26.081Z,64.60
2022-10-17T02:15:13.652Z,61.65
2022-10-17T02:18:03.558Z,59.38
2022-10-17T02:20:51.645Z,56.47
2022-10-17T02:23:47.159Z,60.75
2022-10-17T02:26:35.495Z,59.33
2022-10-17T02:29:18.543Z,60.17
2022-10-17T02:32:03.174Z,57.95
2022-10-17T02:34:56.373Z,55.92
2022-10-17T02:37:31.293Z,56.70
2022-10-17T02:40:04.947Z,56.70
2022-10-17T02:42:38.725Z,58.95
2022-10-17T02:45:11.946Z,56.38
2022-10-17T02:47:54.174Z,57.65
2022-10-17T02:50:52.998Z,60.47
2022-10-17T02:53:37.985Z,55.40
2022-10-17T02:56:18.916Z,58.45
2022-10-17T02:58:55.955Z,57.20
2022-10-17T03:01:29.226Z,55.45
2022-10-17T03:04:09.721Z,62.88
2022-10-17T03:06:41.890Z,59.97
2022-10-17T03:09:14.250Z,57.42
2022-10-17T03:11:46.647Z,58.65
2022-10-17T03:14:18.559Z,54.22
2022-10-17T03:16:50.835Z,59.30
2022-10-17T03:19:23.624Z,57.22
2022-10-17T03:21:56.548Z,57.50
2022-10-17T03:24:28.539Z,59.28
2022-10-17T03:27:00.388Z,57.80
2022-10-17T03:29:32.354Z,58.95
2022-10-17T03:32:04.585Z,57.33
2022-10-17T03:34:36.611Z,57.30
2022-10-17T03:37:08.963Z,55.22
2022-10-17T03:39:43.349Z,58.30
2022-10-17T03:42:15.275Z,55.97
2022-10-17T03:44:47.258Z,57.85
2022-10-17T03:47:19.139Z,57.83
2022-10-17T03:49:53.565Z,58.97
2022-10-17T03:52:26.490Z,56.42
2022-10-17T03:54:59.067Z,58.03
2022-10-17T03:57:32.092Z,52.03
2022-10-17T04:00:05.393Z,55.60
2022-10-17T04:02:45.982Z,53.45
2022-10-17T04:05:23.869Z,54.17
2022-10-17T04:07:57.071Z,52.50
2022-10-17T04:10:50.392Z,55.85
2022-10-17T04:13:22.480Z,58.17
2022-10-17T04:15:59.612Z,55.65
2022-10-17T04:18:32.101Z,51.70
2022-10-17T04:21:08.226Z,53.35
2022-10-17T04:23:40.358Z,53.83
2022-10-17T04:26:23.610Z,51.83
2022-10-17T04:28:55.515Z,49.80
2022-10-17T04:31:27.539Z,53.10
2022-10-17T04:34:09.104Z,54.67
2022-10-17T04:36:41.300Z,54.88
2022-10-17T04:41:51.217Z,52.42
2022-10-17T04:44:23.846Z,53.47
2022-10-17T04:46:57.512Z,52.33
2022-10-17T04:49:30.427Z,50.42
2022-10-17T04:52:11.600Z,50.33
2022-10-17T04:54:51.324Z,47.65
2022-10-17T04:57:23.772Z,48.38
2022-10-17T05:00:06.817Z,46.10
2022-10-17T05:03:05.112Z,50.70
2022-10-17T05:05:42.289Z,50.17
2022-10-17T05:08:15.144Z,51.13
2022-10-17T05:10:47.203Z,51.05
2022-10-17T05:13:20.526Z,50.30
2022-10-17T05:15:53.418Z,49.60
2022-10-17T05:18:25.300Z,48.67
2022-10-17T05:20:57.371Z,50.08
2022-10-17T05:23:30.737Z,49.35
2022-10-17T05:26:02.789Z,49.65
2022-10-17T05:28:35.240Z,50.80
2022-10-17T05:31:09.565Z,51.20
2022-10-17T05:33:41.696Z,52.20
2022-10-17T05:36:13.748Z,51.80
2022-10-17T05:38:51.185Z,50.58
2022-10-17T05:41:23.319Z,51.75
2022-10-17T05:43:55.361Z,47.47
2022-10-17T05:46:39.721Z,45.38
2022-10-17T05:49:19.770Z,49.78
2022-10-17T05:52:05.031Z,47.75
2022-10-17T05:54:43.509Z,52.58
2022-10-17T05:57:16.854Z,49.42
2022-10-17T05:59:48.993Z,49.53
2022-10-17T06:02:24.522Z,46.20
2022-10-17T06:04:56.515Z,46.53
2022-10-17T06:07:29.357Z,54.67
2022-10-17T06:10:02.237Z,49.35
2022-10-17T06:12:34.372Z,50.97
2022-10-17T06:15:07.113Z,49.63
2022-10-17T06:17:39.758Z,45.78
2022-10-17T06:20:11.728Z,45.70
2022-10-17T06:22:43.915Z,50.88
2022-10-17T06:25:21.288Z,46.20
2022-10-17T06:30:30.211Z,45.83
2022-10-17T06:33:02.217Z,47.15
2022-10-17T06:35:34.210Z,48.47
2022-10-17T06:38:06.435Z,46.00
2022-10-17T06:40:40.821Z,47.60
2022-10-17T06:43:12.950Z,48.08
2022-10-17T06:46:11.077Z,42.28
2022-10-17T06:48:46.845Z,44.47
2022-10-17T06:51:27.255Z,46.83
2022-10-17T06:54:01.680Z,49.65
2022-10-17T06:56:59.308Z,44.95
2022-10-17T06:59:44.234Z,41.90
2022-10-17T07:02:23.691Z,40.38
2022-10-17T07:04:56.790Z,40.38
2022-10-17T07:07:32.530Z,43.65
2022-10-17T07:10:08.564Z,45.28
2022-10-17T07:12:42.315Z,44.03
2022-10-17T07:15:14.145Z,46.35
2022-10-17T07:17:50.813Z,46.42
2022-10-17T07:20:24.027Z,47.08
2022-10-17T07:22:56.359Z,43.50
2022-10-17T07:25:29.157Z,41.35
2022-10-17T07:28:05.406Z,40.78
2022-10-17T07:30:37.584Z,47.13
2022-10-17T07:33:14.250Z,40.65
2022-10-17T07:35:46.213Z,46.58
2022-10-17T07:38:18.221Z,52.60
2022-10-17T07:40:58.926Z,43.63
2022-10-17T07:43:31.147Z,46.83
2022-10-17T07:46:05.906Z,38.40
2022-10-17T07:48:40.211Z,39.90
2022-10-17T07:51:13.189Z,41.20
2022-10-17T07:53:48.072Z,41.80
2022-10-17T07:56:24.637Z,48.90
2022-10-17T08:01:34.725Z,46.72
2022-10-17T08:04:06.679Z,44.00
2022-10-17T08:06:38.739Z,37.53
2022-10-17T08:09:10.653Z,91.65
2022-10-17T08:11:46.091Z,69.63
2022-10-17T08:14:17.970Z,57.85
2022-10-17T08:16:49.891Z,42.28
2022-10-17T08:19:21.778Z,50.10
2022-10-17T08:21:54.458Z,57.65
2022-10-17T08:24:26.474Z,158.68
2022-10-17T08:26:58.518Z,52.35
2022-10-17T08:29:32.718Z,49.15
2022-10-17T08:32:06.570Z,82.40
2022-10-17T08:34:40.866Z,70.70
2022-10-17T08:37:13.894Z,47.75
2022-10-17T08:39:45.939Z,42.88
2022-10-17T08:42:42.627Z,40.83
2022-10-17T08:45:32.737Z,43.10
2022-10-17T08:48:09.846Z,50.67
2022-10-17T08:50:56.565Z,48.85
2022-10-17T08:53:55.834Z,50.13
2022-10-17T08:56:48.043Z,47.22
2022-10-17T08:59:29.851Z,95.55
2022-10-17T09:02:41.498Z,69.47
2022-10-17T09:05:41.520Z,62.33
2022-10-17T09:08:44.519Z,62.17
2022-10-17T09:11:47.162Z,80.43
2022-10-17T09:14:26.694Z,62.53
2022-10-17T09:17:01.573Z,61.30
2022-10-17T09:19:43.250Z,55.10
2022-10-17T09:22:23.663Z,55.88
2022-10-17T09:24:57.496Z,54.45
2022-10-17T09:28:14.259Z,61.03
2022-10-17T09:30:47.573Z,62.63
2022-10-17T09:33:34.713Z,50.63
2022-10-17T09:36:26.094Z,54.83
2022-10-17T09:39:12.817Z,62.67
2022-10-17T09:41:52.743Z,60.20
2022-10-17T09:44:38.708Z,50.15
2022-10-17T09:47:15.276Z,55.70
2022-10-17T09:49:48.743Z,79.82
2022-10-17T09:52:26.680Z,54.83
2022-10-17T09:55:15.691Z,52.05
2022-10-17T09:57:57.838Z,45.85
2022-10-17T10:00:33.132Z,38.90
2022-10-17T10:03:26.322Z,39.85
2022-10-17T10:06:06.830Z,42.20
2022-10-17T10:08:53.086Z,37.25
2022-10-17T10:11:45.991Z,36.08
2022-10-17T10:14:30.969Z,47.33
2022-10-17T10:17:05.921Z,43.22
2022-10-17T10:19:38.880Z,39.38
2022-10-17T10:22:18.754Z,36.92
2022-10-17T10:25:23.172Z,40.87
2022-10-17T10:27:56.375Z,39.45
2022-10-17T10:30:34.867Z,38.38
2022-10-17T10:35:43.256Z,41.53
2022-10-17T10:38:17.515Z,36.97
2022-10-17T10:40:53.539Z,39.00
2022-10-17T10:43:40.478Z,39.75
2022-10-17T10:46:21.354Z,45.92
2022-10-17T10:49:01.512Z,41.45
2022-10-17T10:51:45.027Z,44.70
2022-10-17T10:54:24.281Z,52.63
2022-10-17T10:57:00.218Z,49.30
2022-10-17T10:59:58.954Z,48.35
2022-10-17T11:03:01.228Z,42.55
2022-10-17T11:05:39.220Z,44.90
2022-10-17T11:08:31.679Z,44.63
2022-10-17T11:11:27.795Z,44.00
2022-10-17T11:14:02.715Z,42.63
2022-10-17T11:16:41.444Z,40.97
2022-10-17T11:19:34.014Z,47.72
2022-10-17T11:22:16.199Z,47.25
2022-10-17T11:24:59.787Z,52.85
2022-10-17T11:27:33.972Z,48.60
2022-10-17T11:30:06.818Z,52.03
2022-10-17T11:32:56.906Z,49.20
2022-10-17T11:35:39.243Z,54.15
2022-10-17T11:38:21.234Z,59.08
2022-10-17T11:40:56.925Z,58.03
2022-10-17T11:43:36.888Z,55.63
2022-10-17T11:46:23.907Z,43.80
2022-10-17T11:49:20.217Z,47.90
2022-10-17T11:52:02.028Z,52.35
2022-10-17T11:54:54.375Z,54.92
2022-10-17T11:57:54.064Z,55.58
2022-10-17T12:00:42.176Z,49.03
2022-10-17T12:03:42.214Z,70.18
2022-10-17T12:06:14.082Z,53.42
2022-10-17T12:09:01.398Z,49.95
2022-10-17T12:11:54.263Z,84.95
2022-10-17T12:14:46.652Z,60.08
2022-10-17T12:17:32.432Z,94.50
2022-10-17T12:20:25.819Z,61.58
2022-10-17T12:23:12.956Z,47.05
2022-10-17T12:26:05.899Z,42.90
2022-10-17T12:28:37.739Z,39.70
2022-10-17T12:31:28.543Z,41.55
2022-10-17T12:34:06.267Z,89.90
2022-10-17T12:36:39.100Z,73.10
2022-10-17T12:39:30.949Z,48.47
2022-10-17T12:42:02.954Z,51.10
2022-10-17T12:44:36.209Z,55.95
2022-10-17T12:47:09.474Z,70.53
2022-10-17T12:49:45.669Z,54.95
2022-10-17T12:52:32.531Z,84.28
2022-10-17T12:55:12.103Z,47.35
2022-10-17T12:58:03.179Z,49.85
2022-10-17T13:00:37.260Z,54.07
2022-10-17T13:03:23.050Z,78.35
2022-10-17T13:06:00.315Z,124.18
2022-10-17T13:08:43.160Z,72.57
2022-10-17T13:11:15.419Z,71.63
2022-10-17T13:13:49.947Z,79.20
2022-10-17T13:16:30.891Z,72.80
2022-10-17T13:19:12.664Z,60.38
2022-10-17T13:22:06.043Z,48.08
2022-10-17T13:24:40.633Z,45.97
2022-10-17T13:27:23.383Z,41.47
2022-10-17T13:29:56.895Z,44.38
2022-10-17T13:32:39.808Z,47.08
2022-10-17T13:35:14.770Z,42.60
2022-10-17T13:37:52.978Z,41.67
2022-10-17T13:43:24.405Z,46.22
2022-10-17T13:46:19.248Z,32.75
2022-10-17T13:48:58.061Z,43.05
2022-10-17T13:51:30.039Z,46.25
2022-10-17T13:54:01.957Z,50.58
2022-10-17T13:56:33.905Z,60.25
2022-10-17T13:59:24.576Z,38.72
2022-10-17T14:01:56.895Z,54.75
2022-10-17T14:04:36.130Z,49.72
2022-10-17T14:07:26.548Z,146.20
2022-10-17T14:09:58.715Z,44.00
2022-10-17T14:12:30.903Z,43.42
2022-10-17T14:15:11.531Z,39.95
2022-10-17T14:20:57.589Z,44.05
2022-10-17T14:23:32.860Z,40.60
2022-10-17T14:26:25.063Z,39.95
2022-10-17T14:29:06.414Z,42.60
2022-10-17T14:31:38.527Z,40.65
2022-10-17T14:34:25.094Z,35.53
2022-10-17T14:36:57.315Z,38.08
2022-10-17T14:39:29.871Z,45.90
2022-10-17T14:42:04.362Z,41.60
2022-10-17T14:44:37.025Z,39.08
2022-10-17T14:47:42.098Z,40.17
2022-10-17T14:50:12.665Z,39.08
2022-10-17T14:53:10.730Z,34.72
2022-10-17T14:55:56.938Z,33.97
2022-10-17T14:58:33.528Z,32.35
2022-10-17T15:01:05.743Z,35.88
2022-10-17T15:03:37.763Z,34.58
2022-10-17T15:06:20.150Z,43.40
2022-10-17T15:08:52.146Z,37.13
2022-10-17T15:11:24.439Z,32.80
2022-10-17T15:13:56.324Z,36.15
2022-10-17T15:16:32.625Z,33.65
2022-10-17T15:19:04.661Z,37.05
2022-10-17T15:21:40.737Z,40.28
2022-10-17T15:24:19.413Z,37.20
2022-10-17T15:29:31.863Z,34.45
2022-10-17T15:32:03.774Z,39.00
2022-10-17T15:34:35.695Z,36.30
2022-10-17T15:37:24.932Z,39.42
2022-10-17T15:39:56.842Z,35.22
2022-10-17T15:45:21.595Z,35.35
2022-10-17T15:48:03.604Z,34.88
2022-10-17T15:50:36.302Z,32.72
2022-10-17T15:53:17.327Z,35.60
2022-10-17T15:55:50.973Z,28.25
2022-10-17T15:58:22.889Z,32.55
2022-10-17T16:00:54.765Z,29.77
2022-10-17T16:03:28.331Z,30.88
2022-10-17T16:06:00.884Z,30.50
2022-10-17T16:08:32.701Z,27.67
2022-10-17T16:11:04.900Z,35.05
2022-10-17T16:13:37.682Z,28.92
2022-10-17T16:16:12.261Z,32.83
2022-10-17T16:18:44.301Z,34.58
2022-10-17T16:21:17.745Z,33.17
2022-10-17T16:23:49.802Z,30.48
2022-10-17T16:26:21.822Z,38.65
2022-10-17T16:28:55.017Z,37.28
2022-10-17T16:31:30.267Z,34.72
2022-10-17T16:34:05.104Z,37.63
2022-10-17T16:36:38.322Z,97.60
2022-10-17T16:39:10.487Z,36.45
2022-10-17T16:41:42.421Z,39.60
2022-10-17T16:44:14.821Z,43.03
2022-10-17T16:46:47.863Z,39.03
2022-10-17T16:49:21.562Z,38.13
2022-10-17T16:51:54.394Z,43.30
2022-10-17T16:54:26.946Z,42.60
2022-10-17T16:57:00.443Z,41.15
2022-10-17T16:59:33.606Z,45.10
2022-10-17T17:02:06.129Z,40.92
2022-10-17T17:04:38.462Z,42.13
2022-10-17T17:07:10.652Z,40.47
2022-10-17T17:09:42.663Z,42.08
2022-10-17T17:12:14.547Z,36.70
2022-10-17T17:14:46.433Z,44.10
2022-10-17T17:17:30.522Z,52.60
2022-10-17T17:20:11.774Z,42.78
2022-10-17T17:22:43.578Z,43.45
2022-10-17T17:25:15.426Z,46.30
2022-10-17T17:27:47.360Z,42.25
2022-10-17T17:30:19.250Z,45.33
2022-10-17T17:32:51.150Z,46.45
2022-10-17T17:35:23.078Z,46.05
2022-10-17T17:37:55.006Z,44.90
2022-10-17T17:40:26.864Z,40.72
2022-10-17T17:42:58.769Z,45.33
2022-10-17T17:45:30.730Z,48.92
2022-10-17T17:48:02.581Z,44.13
2022-10-17T17:50:37.704Z,46.97
2022-10-17T17:53:10.869Z,50.35
2022-10-17T17:55:43.005Z,45.92
2022-10-17T17:58:14.965Z,46.45
2022-10-17T18:00:46.794Z,52.83
2022-10-17T18:03:18.707Z,53.17
2022-10-17T18:05:50.719Z,48.00
2022-10-17T18:08:23.827Z,49.25
2022-10-17T18:10:58.421Z,49.38
2022-10-17T18:13:30.596Z,51.70
2022-10-17T18:16:04.279Z,49.38
2022-10-17T18:18:36.470Z,48.88
2022-10-17T18:21:09.861Z,46.55
2022-10-17T18:23:45.245Z,52.58
2022-10-17T18:26:17.551Z,52.67
2022-10-17T18:28:50.326Z,54.08
2022-10-17T18:31:28.194Z,49.80
2022-10-17T18:34:00.327Z,53.80
2022-10-17T18:36:33.912Z,52.30
2022-10-17T18:39:08.097Z,53.72
2022-10-17T18:41:39.982Z,54.72
2022-10-17T18:44:12.709Z,46.47
2022-10-17T18:49:19.529Z,49.15
2022-10-17T18:51:51.746Z,47.97
2022-10-17T18:54:24.441Z,48.38
2022-10-17T18:56:56.661Z,53.65
2022-10-17T18:59:28.545Z,53.60
2022-10-17T19:02:00.598Z,48.75
2022-10-17T19:04:32.513Z,42.85
2022-10-17T19:07:04.476Z,46.90
2022-10-17T19:09:36.567Z,47.53
2022-10-17T19:12:08.703Z,40.75
2022-10-17T19:14:40.652Z,41.78
2022-10-17T19:17:12.518Z,40.50
2022-10-17T19:19:44.374Z,46.33
2022-10-17T19:22:16.432Z,45.17
2022-10-17T19:24:48.427Z,42.33
2022-10-17T19:27:21.748Z,44.33
2022-10-17T19:29:53.639Z,43.80
2022-10-17T19:32:25.638Z,36.72
2022-10-17T19:35:02.268Z,35.67
2022-10-17T19:37:37.311Z,33.80
2022-10-17T19:40:09.831Z,32.88
2022-10-17T19:42:44.175Z,35.45
2022-10-17T19:45:23.906Z,33.03
2022-10-17T19:47:59.501Z,32.30
2022-10-17T19:50:31.994Z,36.45
2022-10-17T19:53:03.903Z,34.95
2022-10-17T19:55:37.610Z,33.60
2022-10-17T19:58:10.825Z,34.80
2022-10-17T20:00:55.882Z,40.22
2022-10-17T20:03:29.344Z,34.33
2022-10-17T20:06:01.903Z,41.45
2022-10-17T20:08:34.500Z,32.83
2022-10-17T20:11:13.864Z,35.33
2022-10-17T20:13:46.340Z,31.48
2022-10-17T20:16:21.912Z,31.77
2022-10-17T20:18:55.998Z,30.92
2022-10-17T20:21:31.563Z,28.40
2022-10-17T20:24:05.747Z,28.08
2022-10-17T20:26:39.412Z,27.38
2022-10-17T20:29:15.466Z,28.42
2022-10-17T20:31:48.453Z,28.60
2022-10-17T20:34:20.424Z,29.50
2022-10-17T20:36:52.279Z,27.77
2022-10-17T20:39:24.213Z,27.10
2022-10-17T20:41:56.279Z,27.50
2022-10-17T20:44:28.143Z,30.05
2022-10-17T20:47:02.582Z,25.95
2022-10-17T20:49:34.774Z,26.65
2022-10-17T20:52:07.069Z,28.80
2022-10-17T20:54:38.927Z,25.40
2022-10-17T20:57:10.849Z,29.40
2022-10-17T20:59:42.745Z,27.15
2022-10-17T21:02:14.734Z,28.42
2022-10-17T21:04:48.138Z,26.88
2022-10-17T21:07:21.175Z,26.75
2022-10-17T21:09:53.163Z,28.08
2022-10-17T21:12:36.653Z,23.95
2022-10-17T21:15:14.888Z,25.33
2022-10-17T21:17:46.750Z,23.30
2022-10-17T21:20:18.894Z,26.92
2022-10-17T21:22:50.867Z,21.65
2022-10-17T21:25:22.719Z,26.70
2022-10-17T21:27:54.535Z,30.80
2022-10-17T21:30:26.432Z,23.50
2022-10-17T21:32:58.722Z,23.52
2022-10-17T21:35:30.866Z,25.25
2022-10-17T21:38:03.412Z,23.55
2022-10-17T21:40:35.324Z,23.38
2022-10-17T21:43:07.171Z,21.13
2022-10-17T21:45:39.229Z,21.95
2022-10-17T21:48:13.131Z,21.20
2022-10-17T21:50:45.559Z,20.08
2022-10-17T21:53:17.446Z,20.17
2022-10-17T21:55:49.316Z,21.45
2022-10-17T21:58:21.703Z,21.05
2022-10-17T22:00:53.994Z,23.90
2022-10-17T22:03:25.865Z,20.42
2022-10-17T22:06:07.053Z,19.27
2022-10-17T22:08:51.032Z,21.52
2022-10-17T22:11:26.501Z,19.10
2022-10-17T22:14:02.508Z,21.13
2022-10-17T22:16:34.931Z,18.15
2022-10-17T22:19:07.900Z,19.00
2022-10-17T22:21:39.876Z,21.25
2022-10-17T22:24:13.885Z,19.50
2022-10-17T22:26:45.873Z,19.88
2022-10-17T22:29:18.144Z,20.27
2022-10-17T22:31:50.010Z,17.67
2022-10-17T22:34:21.903Z,24.75
2022-10-17T22:36:53.800Z,17.77
2022-10-17T22:39:25.682Z,20.13
2022-10-17T22:41:57.879Z,20.02
2022-10-17T22:44:29.707Z,16.58
2022-10-17T22:47:01.607Z,18.90
2022-10-17T22:49:33.875Z,18.58
2022-10-17T22:52:05.787Z,19.30
2022-10-17T22:54:37.656Z,18.27
2022-10-17T22:57:09.503Z,17.52
2022-10-17T22:59:41.354Z,16.98
2022-10-17T23:02:13.243Z,15.70
2022-10-17T23:04:45.127Z,16.40
2022-10-17T23:07:16.957Z,17.83
2022-10-17T23:09:48.752Z,16.02
2022-10-17T23:12:20.718Z,18.33
2022-10-17T23:14:52.615Z,18.65
2022-10-17T23:17:24.455Z,17.27
2022-10-17T23:19:57.746Z,19.38
2022-10-17T23:22:30.065Z,16.17
2022-10-17T23:25:02.119Z,15.00
2022-10-17T23:27:37.205Z,19.52
2022-10-17T23:30:09.402Z,15.05
2022-10-17T23:32:41.443Z,15.02
2022-10-17T23:35:13.350Z,16.63
2022-10-17T23:37:45.263Z,20.52
2022-10-17T23:40:17.522Z,15.27
2022-10-17T23:42:49.388Z,17.80
2022-10-17T23:45:21.509Z,18.95
2022-10-17T23:47:53.451Z,14.27
2022-10-17T23:50:25.313Z,14.77
2022-10-17T23:52:57.202Z,16.40
2022-10-17T23:55:29.033Z,18.00
2022-10-17T23:58:00.898Z,14.98
